メインページ
METAR-TAF:

METAR-TAF

空港 :

Cold Lake, アルバータ州, カナダ

緯度: 54-25N, 経度: 110-17W, 海抜: 541m

現時点の気象観測

当レポートは43分前の04:00(UTC)に作成
南/南東の風 6kt
気温 -2°C
湿度 100%
気圧 1014 hPa
視程: 4.8km
高度800ftの曇り

METAR: CYOD 270400Z 15006KT 3SM BR OVC008 M02/M02 A2993 RMK ST8 SLP169

時間: 21:43 (04:43 UTC)

予報

当レポートは3時間0分前の01:43(UTC)に作成
予報は27日の 01時(UTC)から 27日の 24時(UTC)まで有効
変向風 3kt
視程: 9.7km
高度600ftの曇り
27日の 01時(UTC)から 27日の 03時(UTC)まで一時的に
視程: 1.2km
高度300ftの
(弱い) 着氷性, 霧雨, 靄
27日の 0300時(UTC)から
南東の風 5kt
視程: 1.2km
高度300ftの
27日の 03時(UTC)から 27日の 16時(UTC)まで一時的に
視程: 3.2km
高度600ftの千切れ雲あり
(弱い) 着氷性, 霧雨, 靄
確率 30%
27日の 04時(UTC)から 27日の 16時(UTC)まで
視程: 0.4km
高度200ftの
着氷性の霧
27日の 1600時(UTC)から
南/南東の風 5kt
視程: 3.2km
高度600ftの千切れ雲あり

TAF: CYOD 270143Z 2701/2724 VRB03KT 6SM BR OVC006 TEMPO 2701/2703 3/4SM -FZDZ BR VV003 FM270300 14005KT 3/4SM BR VV003 TEMPO 2703/2716 2SM -FZDZ BR BKN006 PROB30 2704/2716 1/4SM FZFG VV002 FM271600 16005KT 2SM BR BKN006 RMK NXT FCST BY 270600Z

4,000以上の空港の気象観測と天気予報(METAR報とTAF報)

利用可能な観測所は地図上に黄色い丸と赤い丸で示す。

丸の上にカーソルを重ねると観測所名を参照できる。

次にクリックすると気象観測と天気予報を参照できる。

マップの切り替え:黒色「×」印の緑ボタンをクリックして拡大、「-」印の緑ボタンをクリックして縮小、緑色の三角印をクリックして隣りの地図に切り替え


METAR-TAF: